Nepton, Kentucky
Current Conditions -  °F | °C
As of 12:15 PM on Friday 19 Dec 2014 (Local Time) from KFGX Reporting Station
Overcast Overcast  
Wind Chill: 29°   Ceiling: 1800
Heat Index: 29°   Visibility: 10mi
Dew Point: 22°   Wind: 3mph
Humidity: 74%   Direction: 80°E
Pressure: 30.28"   Gusts: NA
Location:  38.4071°N, 83.873°W
Report Text: KFGX 191715Z AUTO 08003KT 10SM OVC018 M02/M06 A3028 RMK AO2 T10181058
Loading
Personal Weather Stations






























Interactive Weather Map New forecast layout! Learn more

10-Day Weather Forecast

Advertisements
Track Severe Weather on mobile